TAF KIPL
KIPL 072337Z 0800/0824 35005KT P6SM BKN070 OVC100 FM081800 VRB05KT P6SM FEW120 FEW250=
METAR KIPL
WC KIPL
WS KIPL
WV KIPL